Caapiranga, Brazil
Current Conditions -  °F | °C
As of 8:00 AM on Saturday 01 Nov 2014 (Local Time) from SBEG Reporting Station
Clear Clear  
Wind Chill: 82°   Ceiling: Unl
Heat Index: 87°   Visibility: 6mi
Dew Point: 72°   Wind: 12mph
Humidity: 70%   Direction: 60°ENE
Pressure: 29.88"   Gusts: NA
Location:  3.3°S, 61.21°W
Report Text: SBEG 011200Z 06010KT CAVOK 28/22 Q1012
Loading
Personal Weather Stations






























Interactive Weather Map
Tropical Storm Tracking
New forecast layout! Learn more

10-Day Weather Forecast

Advertisements
Track Severe Weather on mobile